createdAt,value
2022-10-19T00:00:16.858Z,102269.22
2022-10-19T00:02:19.916Z,102261.41
2022-10-19T00:04:22.976Z,102269.06
2022-10-19T00:06:27.442Z,102262.94
2022-10-19T00:08:30.490Z,102265.56
2022-10-19T00:10:33.553Z,102263.56
2022-10-19T00:12:36.650Z,102272.13
2022-10-19T00:14:41.030Z,102262.81
2022-10-19T00:16:47.454Z,102261.53
2022-10-19T00:18:50.702Z,102265.84
2022-10-19T00:20:53.663Z,102262.53
2022-10-19T00:22:56.719Z,102265.28
2022-10-19T00:24:59.733Z,102255.06
2022-10-19T00:27:02.733Z,102256.25
2022-10-19T00:29:06.728Z,102248.44
2022-10-19T00:31:12.156Z,102249.75
2022-10-19T00:33:20.785Z,102251.53
2022-10-19T00:35:23.744Z,102258.50
2022-10-19T00:37:27.063Z,102255.16
2022-10-19T00:39:30.254Z,102252.53
2022-10-19T00:41:34.869Z,102251.41
2022-10-19T00:43:51.298Z,102252.09
2022-10-19T00:45:54.413Z,102252.44
2022-10-19T00:47:58.977Z,102246.25
2022-10-19T00:50:02.147Z,102255.16
2022-10-19T00:52:07.183Z,102252.44
2022-10-19T00:54:10.731Z,102249.03
2022-10-19T00:56:15.608Z,102257.00
2022-10-19T00:58:18.857Z,102257.19
2022-10-19T01:00:22.413Z,102256.53
2022-10-19T01:02:25.580Z,102249.91
2022-10-19T01:04:30.506Z,102251.22
2022-10-19T01:06:33.930Z,102253.91
2022-10-19T01:08:36.965Z,102260.94
2022-10-19T01:10:44.444Z,102255.78
2022-10-19T01:12:59.486Z,102254.88
2022-10-19T01:15:07.124Z,102247.78
2022-10-19T01:17:14.536Z,102246.47
2022-10-19T01:19:40.602Z,102248.94
2022-10-19T01:21:48.501Z,102247.03
2022-10-19T01:24:09.754Z,102254.22
2022-10-19T01:26:24.339Z,102251.00
2022-10-19T01:28:34.142Z,102253.75
2022-10-19T01:30:48.451Z,102248.03
2022-10-19T01:32:59.988Z,102246.91
2022-10-19T01:35:07.656Z,102241.47
2022-10-19T01:37:15.585Z,102246.59
2022-10-19T01:39:25.971Z,102245.53
2022-10-19T01:41:31.741Z,102245.63
2022-10-19T01:43:39.028Z,102243.94
2022-10-19T01:45:45.354Z,102241.97
2022-10-19T01:47:52.900Z,102244.19
2022-10-19T01:49:58.233Z,102237.25
2022-10-19T01:52:03.357Z,102235.44
2022-10-19T01:54:08.287Z,102230.81
2022-10-19T01:56:12.935Z,102227.41
2022-10-19T01:58:18.539Z,102217.59
2022-10-19T02:00:23.449Z,102212.56
2022-10-19T02:02:27.897Z,102216.31
2022-10-19T02:04:32.721Z,102217.47
2022-10-19T02:06:36.674Z,102213.13
2022-10-19T02:08:41.468Z,102216.09
2022-10-19T02:10:46.338Z,102212.72
2022-10-19T02:12:50.337Z,102211.78
2022-10-19T02:14:56.199Z,102215.25
2022-10-19T02:17:02.124Z,102208.94
2022-10-19T02:19:06.490Z,102198.34
2022-10-19T02:21:11.022Z,102210.00
2022-10-19T02:23:14.633Z,102208.50
2022-10-19T02:25:17.974Z,102206.78
2022-10-19T02:27:21.236Z,102209.06
2022-10-19T02:29:24.287Z,102207.56
2022-10-19T02:31:27.453Z,102206.47
2022-10-19T02:33:30.869Z,102202.47
2022-10-19T02:35:34.038Z,102200.13
2022-10-19T02:37:38.449Z,102200.50
2022-10-19T02:39:41.682Z,102199.59
2022-10-19T02:41:46.679Z,102200.03
2022-10-19T02:43:51.166Z,102192.19
2022-10-19T02:45:57.215Z,102191.50
2022-10-19T02:48:03.152Z,102194.34
2022-10-19T02:50:06.791Z,102185.81
2022-10-19T02:52:11.039Z,102186.72
2022-10-19T02:54:15.388Z,102180.00
2022-10-19T02:56:18.651Z,102177.06
2022-10-19T02:58:21.810Z,102170.94
2022-10-19T03:00:24.833Z,102184.19
2022-10-19T03:02:27.861Z,102175.22
2022-10-19T03:04:30.970Z,102178.13
2022-10-19T03:06:34.064Z,102178.56
2022-10-19T03:08:37.076Z,102172.00
2022-10-19T03:10:41.496Z,102166.41
2022-10-19T03:12:44.693Z,102171.97
2022-10-19T03:14:47.762Z,102161.97
2022-10-19T03:16:51.000Z,102168.13
2022-10-19T03:18:54.767Z,102169.59
2022-10-19T03:21:02.575Z,102164.38
2022-10-19T03:23:05.567Z,102168.75
2022-10-19T03:25:09.667Z,102166.44
2022-10-19T03:27:14.102Z,102167.19
2022-10-19T03:29:17.121Z,102164.16
2022-10-19T03:31:20.333Z,102169.09
2022-10-19T03:33:23.351Z,102175.50
2022-10-19T03:35:26.374Z,102173.00
2022-10-19T03:37:29.474Z,102167.63
2022-10-19T03:39:32.451Z,102170.88
2022-10-19T03:41:37.178Z,102177.13
2022-10-19T03:43:42.071Z,102181.63
2022-10-19T03:45:47.485Z,102179.31
2022-10-19T03:47:51.191Z,102178.78
2022-10-19T03:49:54.563Z,102188.19
2022-10-19T03:51:57.855Z,102178.94
2022-10-19T03:54:03.070Z,102160.13
2022-10-19T03:56:08.238Z,102182.34
2022-10-19T03:58:11.538Z,102186.03
2022-10-19T04:00:16.957Z,102188.78
2022-10-19T04:02:20.012Z,102185.22
2022-10-19T04:04:25.935Z,102139.09
2022-10-19T04:06:32.330Z,102196.03
2022-10-19T04:08:36.351Z,102190.44
2022-10-19T04:10:39.694Z,102193.56
2022-10-19T04:12:42.765Z,102188.34
2022-10-19T04:14:56.738Z,102193.66
2022-10-19T04:17:02.654Z,102178.34
2022-10-19T04:19:05.930Z,102195.69
2022-10-19T04:21:22.671Z,102188.03
2022-10-19T04:23:27.481Z,102185.34
2022-10-19T04:25:30.707Z,102184.69
2022-10-19T04:27:34.122Z,102179.13
2022-10-19T04:29:37.771Z,102116.72
2022-10-19T04:31:41.387Z,102180.59
2022-10-19T04:35:49.897Z,102183.19
2022-10-19T04:37:53.165Z,102182.00
2022-10-19T04:39:56.478Z,102184.91
2022-10-19T04:41:59.811Z,102184.69
2022-10-19T04:44:04.837Z,102187.97
2022-10-19T04:46:10.103Z,102186.72
2022-10-19T04:48:15.132Z,102180.19
2022-10-19T04:50:20.051Z,102177.75
2022-10-19T04:52:32.538Z,102176.88
2022-10-19T04:54:35.834Z,102173.56
2022-10-19T04:56:40.939Z,102168.06
2022-10-19T04:58:45.000Z,102173.06
2022-10-19T05:00:48.379Z,102167.91
2022-10-19T05:02:51.703Z,102165.53
2022-10-19T05:04:55.006Z,102166.56
2022-10-19T05:06:59.649Z,102174.38
2022-10-19T05:09:05.567Z,102168.69
2022-10-19T05:11:11.276Z,102165.22
2022-10-19T05:13:14.594Z,102168.59
2022-10-19T05:15:18.102Z,102168.28
2022-10-19T05:17:21.364Z,102147.41
2022-10-19T05:19:24.773Z,102147.91
2022-10-19T05:21:29.096Z,102160.53
2022-10-19T05:23:34.360Z,102162.44
2022-10-19T05:25:37.642Z,102161.38
2022-10-19T05:27:40.954Z,102155.88
2022-10-19T05:29:44.243Z,102159.66
2022-10-19T05:31:47.513Z,102153.56
2022-10-19T05:33:51.036Z,102156.63
2022-10-19T05:35:54.287Z,102162.97
2022-10-19T05:37:57.592Z,102163.13
2022-10-19T05:40:02.376Z,102165.91
2022-10-19T05:42:05.753Z,102159.56
2022-10-19T05:44:09.107Z,102160.84
2022-10-19T05:46:14.436Z,102160.13
2022-10-19T05:48:17.808Z,102152.59
2022-10-19T05:50:21.170Z,102160.31
2022-10-19T05:52:24.439Z,102160.06
2022-10-19T05:54:28.568Z,102163.19
2022-10-19T05:56:33.897Z,102162.63
2022-10-19T05:58:37.257Z,102159.16
2022-10-19T06:00:40.925Z,102160.25
2022-10-19T06:02:44.225Z,102158.84
2022-10-19T06:04:47.503Z,102156.97
2022-10-19T06:06:50.841Z,102158.72
2022-10-19T06:08:55.072Z,102167.88
2022-10-19T06:11:06.610Z,102167.81
2022-10-19T06:13:11.714Z,102161.63
2022-10-19T06:15:15.199Z,102155.81
2022-10-19T06:17:18.672Z,102160.41
2022-10-19T06:19:22.103Z,102158.44
2022-10-19T06:21:27.023Z,102150.69
2022-10-19T06:23:33.260Z,102155.34
2022-10-19T06:25:37.141Z,102160.22
2022-10-19T06:27:40.598Z,102160.47
2022-10-19T06:29:45.272Z,102142.09
2022-10-19T06:31:49.268Z,102162.47
2022-10-19T06:33:52.652Z,102164.34
2022-10-19T06:35:55.958Z,102166.38
2022-10-19T06:37:59.268Z,102168.81
2022-10-19T06:40:06.913Z,102175.44
2022-10-19T06:42:10.647Z,102181.44
2022-10-19T06:44:13.958Z,102187.84
2022-10-19T06:46:22.030Z,102199.56
2022-10-19T06:48:25.742Z,102190.41
2022-10-19T06:50:29.062Z,102184.47
2022-10-19T06:52:33.423Z,102187.59
2022-10-19T06:54:36.992Z,102174.69
2022-10-19T06:56:40.284Z,102178.97
2022-10-19T06:58:46.526Z,102161.94
2022-10-19T07:00:57.090Z,102171.28
2022-10-19T07:03:01.763Z,102171.50
2022-10-19T07:05:06.931Z,102172.59
2022-10-19T07:07:10.450Z,102163.97
2022-10-19T07:09:13.884Z,102169.69
2022-10-19T07:11:18.804Z,102166.34
2022-10-19T07:13:22.761Z,102165.44
2022-10-19T07:15:26.178Z,102166.19
2022-10-19T07:17:29.518Z,102171.66
2022-10-19T07:19:34.896Z,102175.56
2022-10-19T07:21:41.629Z,102186.41
2022-10-19T07:23:47.209Z,102184.38
2022-10-19T07:25:52.576Z,102181.78
2022-10-19T07:27:55.864Z,102180.00
2022-10-19T07:29:59.168Z,102175.91
2022-10-19T07:32:02.467Z,102184.19
2022-10-19T07:34:06.364Z,102175.81
2022-10-19T07:36:13.441Z,102181.50
2022-10-19T07:38:16.775Z,102181.97
2022-10-19T07:40:20.066Z,102179.84
2022-10-19T07:42:23.451Z,102179.94
2022-10-19T07:44:27.149Z,102183.50
2022-10-19T07:46:33.454Z,102182.88
2022-10-19T07:48:36.984Z,102178.72
2022-10-19T07:50:40.314Z,102174.00
2022-10-19T07:52:44.972Z,102182.22
2022-10-19T07:54:50.917Z,102188.66
2022-10-19T07:56:54.297Z,102179.84
2022-10-19T07:58:58.926Z,102192.56
2022-10-19T08:01:03.432Z,102191.84
2022-10-19T08:05:31.008Z,102189.47
2022-10-19T08:07:34.568Z,102186.22
2022-10-19T08:09:52.816Z,102178.25
2022-10-19T08:11:58.130Z,102170.41
2022-10-19T08:14:02.944Z,102169.09
2022-10-19T08:16:07.411Z,102156.53
2022-10-19T08:18:11.672Z,102167.53
2022-10-19T08:20:15.144Z,102151.69
2022-10-19T08:22:18.462Z,102117.56
2022-10-19T08:24:22.128Z,102160.16
2022-10-19T08:26:29.316Z,102162.34
2022-10-19T08:28:32.746Z,102161.34
2022-10-19T08:30:36.648Z,102166.16
2022-10-19T08:32:40.106Z,102157.13
2022-10-19T08:34:43.436Z,102163.75
2022-10-19T08:36:48.382Z,102162.22
2022-10-19T08:38:51.926Z,102154.53
2022-10-19T08:40:55.673Z,102151.09
2022-10-19T08:43:06.284Z,102140.06
2022-10-19T08:45:27.125Z,102143.06
2022-10-19T08:47:46.576Z,102141.19
2022-10-19T08:49:50.094Z,102140.84
2022-10-19T08:51:59.429Z,102140.06
2022-10-19T08:54:12.084Z,102132.31
2022-10-19T08:56:45.841Z,102134.69
2022-10-19T08:58:57.973Z,102124.66
2022-10-19T09:01:07.947Z,102121.09
2022-10-19T09:03:27.147Z,102125.38
2022-10-19T09:05:48.224Z,102120.34
2022-10-19T09:07:54.605Z,102121.88
2022-10-19T09:10:01.618Z,102113.91
2022-10-19T09:12:07.887Z,102109.28
2022-10-19T09:14:17.525Z,102109.75
2022-10-19T09:16:21.329Z,102105.22
2022-10-19T09:18:27.863Z,102108.00
2022-10-19T09:20:37.979Z,102095.94
2022-10-19T09:22:42.780Z,102106.03
2022-10-19T09:24:51.945Z,102110.63
2022-10-19T09:26:58.109Z,102110.19
2022-10-19T09:29:07.075Z,102110.31
2022-10-19T09:31:17.164Z,102105.22
2022-10-19T09:33:29.494Z,102111.88
2022-10-19T09:35:38.001Z,102102.53
2022-10-19T09:37:46.964Z,102107.16
2022-10-19T09:39:54.113Z,102106.00
2022-10-19T09:42:02.603Z,102055.19
2022-10-19T09:44:06.390Z,102094.69
2022-10-19T09:46:19.966Z,102092.81
2022-10-19T09:48:29.675Z,102092.09
2022-10-19T09:50:33.047Z,102093.44
2022-10-19T09:52:38.341Z,102094.50
2022-10-19T09:54:41.696Z,102096.38
2022-10-19T09:56:54.710Z,102032.34
2022-10-19T09:58:59.686Z,102098.16
2022-10-19T10:01:04.319Z,102094.50
2022-10-19T10:03:09.659Z,102095.28
2022-10-19T10:05:16.151Z,102097.91
2022-10-19T10:07:19.732Z,102082.72
2022-10-19T10:09:27.286Z,102098.84
2022-10-19T10:11:32.707Z,102098.25
2022-10-19T10:13:39.953Z,102092.25
2022-10-19T10:15:44.312Z,102093.44
2022-10-19T10:17:48.751Z,102089.13
2022-10-19T10:20:04.956Z,102093.41
2022-10-19T10:22:24.087Z,102089.75
2022-10-19T10:24:27.965Z,102088.78
2022-10-19T10:26:40.928Z,102084.97
2022-10-19T10:28:47.674Z,102077.63
2022-10-19T10:30:54.448Z,102075.91
2022-10-19T10:33:04.725Z,102072.63
2022-10-19T10:35:22.297Z,102070.59
2022-10-19T10:37:32.478Z,102075.75
2022-10-19T10:39:41.164Z,102066.72
2022-10-19T10:41:45.677Z,102075.69
2022-10-19T10:43:57.548Z,102064.72
2022-10-19T10:46:04.262Z,102060.25
2022-10-19T10:48:16.208Z,102047.63
2022-10-19T10:50:24.789Z,102042.88
2022-10-19T10:52:31.205Z,102049.47
2022-10-19T10:54:34.873Z,102050.28
2022-10-19T10:56:40.792Z,102047.56
2022-10-19T10:58:48.465Z,102052.53
2022-10-19T11:00:52.058Z,102042.03
2022-10-19T11:02:57.468Z,102039.06
2022-10-19T11:05:02.782Z,102037.09
2022-10-19T11:07:11.809Z,102037.16
2022-10-19T11:09:17.730Z,102036.38
2022-10-19T11:11:22.585Z,102034.34
2022-10-19T11:13:28.687Z,102032.63
2022-10-19T11:15:32.986Z,102028.31
2022-10-19T11:17:38.581Z,102020.97
2022-10-19T11:19:43.192Z,102021.34
2022-10-19T11:21:52.804Z,102014.69
2022-10-19T11:24:02.523Z,102007.66
2022-10-19T11:26:14.267Z,102013.00
2022-10-19T11:28:23.189Z,102018.03
2022-10-19T11:30:26.654Z,102012.03
2022-10-19T11:32:35.227Z,101996.94
2022-10-19T11:34:50.450Z,101995.75
2022-10-19T11:36:55.959Z,102001.03
2022-10-19T11:39:07.783Z,101992.59
2022-10-19T11:41:18.856Z,101990.84
2022-10-19T11:43:27.838Z,101991.69
2022-10-19T11:45:38.471Z,101983.63
2022-10-19T11:47:51.831Z,101988.59
2022-10-19T11:50:00.721Z,101978.34
2022-10-19T11:52:10.404Z,101968.28
2022-10-19T11:54:22.292Z,101970.06
2022-10-19T11:56:44.811Z,101964.75
2022-10-19T11:58:59.338Z,101964.44
2022-10-19T12:01:09.173Z,101976.78
2022-10-19T12:03:19.799Z,101959.09
2022-10-19T12:05:26.360Z,101959.13
2022-10-19T12:07:47.068Z,101952.41
2022-10-19T12:09:55.332Z,101942.78
2022-10-19T12:12:16.143Z,101951.63
2022-10-19T12:14:21.362Z,101934.47
2022-10-19T12:16:30.915Z,101938.66
2022-10-19T12:18:37.678Z,101932.28
2022-10-19T12:20:43.887Z,101934.31
2022-10-19T12:22:47.162Z,101931.16
2022-10-19T12:24:51.262Z,101925.19
2022-10-19T12:26:55.792Z,101929.53
2022-10-19T12:29:01.493Z,101914.81
2022-10-19T12:31:05.712Z,101913.25
2022-10-19T12:33:19.107Z,101903.34
2022-10-19T12:35:42.901Z,101890.72
2022-10-19T12:37:51.736Z,101889.47
2022-10-19T12:39:58.222Z,101888.59
2022-10-19T12:42:10.594Z,101886.06
2022-10-19T12:46:32.337Z,101875.53
2022-10-19T12:48:36.450Z,101876.53
2022-10-19T12:50:54.558Z,101880.19
2022-10-19T12:52:57.613Z,101875.75
2022-10-19T12:55:11.311Z,101869.69
2022-10-19T12:57:28.585Z,101868.19
2022-10-19T12:59:32.790Z,101866.38
2022-10-19T13:01:45.162Z,101862.56
2022-10-19T13:03:49.685Z,101854.50
2022-10-19T13:06:00.187Z,101854.56
2022-10-19T13:08:06.903Z,101852.06
2022-10-19T13:10:19.541Z,101845.94
2022-10-19T13:12:44.258Z,101846.81
2022-10-19T13:14:48.851Z,101835.22
2022-10-19T13:17:00.807Z,101830.81
2022-10-19T13:19:04.827Z,101824.47
2022-10-19T13:21:08.543Z,101829.50
2022-10-19T13:23:26.525Z,101824.00
2022-10-19T13:25:30.498Z,101818.81
2022-10-19T13:27:38.808Z,101815.28
2022-10-19T13:29:44.754Z,101811.00
2022-10-19T13:31:47.936Z,101815.31
2022-10-19T13:33:51.752Z,101809.28
2022-10-19T13:36:06.981Z,101809.28
2022-10-19T13:38:27.262Z,101801.13
2022-10-19T13:40:31.304Z,101805.84
2022-10-19T13:42:34.803Z,101801.56
2022-10-19T13:44:39.446Z,101805.94
2022-10-19T13:46:52.109Z,101810.94
2022-10-19T13:49:10.300Z,101799.94
2022-10-19T13:51:19.610Z,101794.53
2022-10-19T13:53:29.565Z,101791.88
2022-10-19T13:55:50.159Z,101792.69
2022-10-19T13:58:03.031Z,101786.44
2022-10-19T14:00:14.819Z,101788.09
2022-10-19T14:03:05.439Z,101752.47
2022-10-19T14:05:18.120Z,101781.69
2022-10-19T14:07:25.695Z,101782.06
2022-10-19T14:09:58.692Z,101776.81
2022-10-19T14:12:06.879Z,101783.78
2022-10-19T14:14:14.634Z,101780.06
2022-10-19T14:16:19.424Z,101781.72
2022-10-19T14:18:27.829Z,101779.69
2022-10-19T14:20:32.546Z,101780.38
2022-10-19T14:22:36.858Z,101774.94
2022-10-19T14:24:39.844Z,101771.44
2022-10-19T14:26:42.913Z,101770.34
2022-10-19T14:28:45.993Z,101770.09
2022-10-19T14:30:55.481Z,101764.75
2022-10-19T14:33:02.045Z,101762.34
2022-10-19T14:35:19.643Z,101759.69
2022-10-19T14:37:24.046Z,101764.78
2022-10-19T14:39:30.985Z,101759.47
2022-10-19T14:43:43.659Z,101752.59
2022-10-19T14:46:03.661Z,101751.66
2022-10-19T14:48:07.610Z,101749.91
2022-10-19T14:50:13.410Z,101749.97
2022-10-19T14:52:19.041Z,101746.28
2022-10-19T14:54:30.958Z,101742.03
2022-10-19T14:56:35.610Z,101728.84
2022-10-19T14:58:41.416Z,101735.00
2022-10-19T15:00:49.356Z,101727.38
2022-10-19T15:02:58.162Z,101728.38
2022-10-19T15:05:04.601Z,101724.34
2022-10-19T15:07:16.871Z,101720.06
2022-10-19T15:09:36.808Z,101720.16
2022-10-19T15:11:49.737Z,101713.97
2022-10-19T15:14:02.397Z,101718.38
2022-10-19T15:16:05.534Z,101714.88
2022-10-19T15:18:43.541Z,101702.38
2022-10-19T15:20:49.564Z,101702.22
2022-10-19T15:23:19.182Z,101698.34
2022-10-19T15:25:35.297Z,101697.13
2022-10-19T15:27:40.388Z,101694.56
2022-10-19T15:29:54.962Z,101695.59
2022-10-19T15:32:13.243Z,101698.88
2022-10-19T15:34:25.623Z,101691.84
2022-10-19T15:36:31.339Z,101685.53
2022-10-19T15:38:36.211Z,101679.34
2022-10-19T15:40:42.728Z,101687.13
2022-10-19T15:42:48.644Z,101679.09
2022-10-19T15:44:51.802Z,101690.34
2022-10-19T15:47:19.251Z,101681.31
2022-10-19T15:49:40.123Z,101681.09
2022-10-19T15:51:47.647Z,101684.28
2022-10-19T15:53:51.583Z,101671.75
2022-10-19T15:55:56.371Z,101666.41
2022-10-19T15:57:59.979Z,101665.41
2022-10-19T16:00:12.377Z,101667.72
2022-10-19T16:02:15.824Z,101666.00
2022-10-19T16:04:19.083Z,101665.31
2022-10-19T16:06:25.064Z,101659.94
2022-10-19T16:08:28.286Z,101667.69
2022-10-19T16:10:31.526Z,101662.22
2022-10-19T16:12:35.967Z,101662.25
2022-10-19T16:14:39.074Z,101664.78
2022-10-19T16:16:42.334Z,101661.94
2022-10-19T16:18:45.713Z,101656.81
2022-10-19T16:20:49.062Z,101657.56
2022-10-19T16:22:52.949Z,101652.19
2022-10-19T16:24:56.223Z,101646.84
2022-10-19T16:26:59.353Z,101651.84
2022-10-19T16:29:05.770Z,101635.97
2022-10-19T16:31:08.911Z,101635.16
2022-10-19T16:33:11.948Z,101637.56
2022-10-19T16:35:15.050Z,101638.09
2022-10-19T16:37:18.335Z,101631.72
2022-10-19T16:39:21.412Z,101635.94
2022-10-19T16:41:24.633Z,101633.00
2022-10-19T16:43:27.795Z,101633.00
2022-10-19T16:45:32.476Z,101631.88
2022-10-19T16:47:35.632Z,101634.47
2022-10-19T16:49:39.063Z,101632.63
2022-10-19T16:51:43.276Z,101626.31
2022-10-19T16:53:46.608Z,101633.84
2022-10-19T16:55:49.848Z,101638.13
2022-10-19T16:57:53.427Z,101640.03
2022-10-19T16:59:56.415Z,101635.47
2022-10-19T17:02:00.813Z,101627.50
2022-10-19T17:04:04.169Z,101625.69
2022-10-19T17:06:07.894Z,101625.53
2022-10-19T17:08:11.699Z,101627.97
2022-10-19T17:10:15.354Z,101642.06
2022-10-19T17:12:18.771Z,101631.41
2022-10-19T17:14:21.879Z,101639.16
2022-10-19T17:16:26.238Z,101633.03
2022-10-19T17:18:30.769Z,101623.25
2022-10-19T17:20:34.343Z,101630.78
2022-10-19T17:22:37.911Z,101622.84
2022-10-19T17:24:41.454Z,101630.47
2022-10-19T17:26:45.814Z,101626.97
2022-10-19T17:28:49.274Z,101624.19
2022-10-19T17:30:53.721Z,101600.28
2022-10-19T17:32:56.875Z,101618.75
2022-10-19T17:35:01.303Z,101614.50
2022-10-19T17:37:04.548Z,101616.81
2022-10-19T17:39:09.625Z,101622.22
2022-10-19T17:41:14.991Z,101623.22
2022-10-19T17:43:18.357Z,101617.63
2022-10-19T17:45:21.696Z,101620.84
2022-10-19T17:47:25.160Z,101613.78
2022-10-19T17:49:29.659Z,101618.22
2022-10-19T17:51:35.552Z,101612.81
2022-10-19T17:53:38.574Z,101613.22
2022-10-19T17:55:41.853Z,101609.66
2022-10-19T17:57:45.296Z,101604.53
2022-10-19T17:59:52.899Z,101603.59
2022-10-19T18:01:56.365Z,101607.13
2022-10-19T18:03:59.900Z,101606.72
2022-10-19T18:06:10.686Z,101608.53
2022-10-19T18:08:15.783Z,101620.69
2022-10-19T18:10:19.080Z,101629.19
2022-10-19T18:12:22.500Z,101618.66
2022-10-19T18:14:25.825Z,101619.59
2022-10-19T18:16:31.347Z,101622.28
2022-10-19T18:18:37.067Z,101622.22
2022-10-19T18:20:40.398Z,101617.94
2022-10-19T18:22:43.695Z,101622.16
2022-10-19T18:24:49.417Z,101622.84
2022-10-19T18:26:52.685Z,101620.13
2022-10-19T18:28:57.451Z,101613.00
2022-10-19T18:31:06.501Z,101604.06
2022-10-19T18:33:12.854Z,101603.91
2022-10-19T18:35:16.533Z,101603.91
2022-10-19T18:37:19.677Z,101602.91
2022-10-19T18:39:23.038Z,101592.25
2022-10-19T18:41:28.042Z,101598.38
2022-10-19T18:43:31.116Z,101598.41
2022-10-19T18:45:34.371Z,101605.25
2022-10-19T18:47:37.527Z,101601.84
2022-10-19T18:49:40.742Z,101547.44
2022-10-19T18:51:44.817Z,101600.81
2022-10-19T18:53:48.967Z,101593.06
2022-10-19T18:55:59.108Z,101591.97
2022-10-19T18:58:03.806Z,101583.94
2022-10-19T19:00:07.390Z,101579.47
2022-10-19T19:02:17.284Z,101589.00
2022-10-19T19:04:26.012Z,101589.66
2022-10-19T19:06:31.559Z,101594.31
2022-10-19T19:08:35.058Z,101582.88
2022-10-19T19:10:38.542Z,101572.09
2022-10-19T19:12:44.424Z,101552.47
2022-10-19T19:14:49.252Z,101558.66
2022-10-19T19:16:52.401Z,101557.59
2022-10-19T19:18:56.678Z,101557.59
2022-10-19T19:20:59.846Z,101547.75
2022-10-19T19:23:02.862Z,101557.19
2022-10-19T19:25:06.469Z,101551.94
2022-10-19T19:27:09.687Z,101560.69
2022-10-19T19:29:12.752Z,101558.78
2022-10-19T19:31:17.154Z,101555.53
2022-10-19T19:33:20.269Z,101550.38
2022-10-19T19:35:23.455Z,101551.50
2022-10-19T19:37:26.778Z,101554.78
2022-10-19T19:39:30.051Z,101551.19
2022-10-19T19:41:34.172Z,101552.84
2022-10-19T19:43:37.981Z,101554.44
2022-10-19T19:45:41.628Z,101553.25
2022-10-19T19:47:46.324Z,101542.78
2022-10-19T19:49:49.389Z,101549.94
2022-10-19T19:51:53.123Z,101545.34
2022-10-19T19:53:56.280Z,101541.59
2022-10-19T19:55:59.382Z,101542.28
2022-10-19T19:58:02.427Z,101534.38
2022-10-19T20:00:05.870Z,101523.22
2022-10-19T20:02:16.374Z,101536.69
2022-10-19T20:04:20.929Z,101524.94
2022-10-19T20:06:25.957Z,101526.56
2022-10-19T20:08:29.315Z,101525.81
2022-10-19T20:10:32.440Z,101522.03
2022-10-19T20:12:35.473Z,101518.69
2022-10-19T20:14:38.543Z,101519.53
2022-10-19T20:16:41.643Z,101518.59
2022-10-19T20:18:45.910Z,101522.75
2022-10-19T20:20:50.328Z,101515.72
2022-10-19T20:22:53.379Z,101519.59
2022-10-19T20:24:56.401Z,101517.53
2022-10-19T20:26:59.472Z,101513.97
2022-10-19T20:29:02.935Z,101517.44
2022-10-19T20:31:07.093Z,101510.56
2022-10-19T20:33:10.179Z,101515.50
2022-10-19T20:35:13.323Z,101511.44
2022-10-19T20:37:17.723Z,101507.03
2022-10-19T20:39:20.708Z,101508.50
2022-10-19T20:41:24.800Z,101502.53
2022-10-19T20:43:27.875Z,101507.75
2022-10-19T20:45:31.297Z,101499.03
2022-10-19T20:47:34.430Z,101493.13
2022-10-19T20:49:37.643Z,101479.78
2022-10-19T20:51:40.669Z,101483.19
2022-10-19T20:53:46.383Z,101477.09
2022-10-19T20:55:51.036Z,101478.94
2022-10-19T20:57:54.104Z,101487.47
2022-10-19T20:59:57.171Z,101477.09
2022-10-19T21:02:00.594Z,101474.66
2022-10-19T21:04:04.772Z,101480.38
2022-10-19T21:06:09.211Z,101469.84
2022-10-19T21:08:15.286Z,101472.38
2022-10-19T21:10:19.803Z,101419.75
2022-10-19T21:12:22.800Z,101469.84
2022-10-19T21:14:28.594Z,101462.94
2022-10-19T21:16:33.643Z,101450.56
2022-10-19T21:18:36.658Z,101456.47
2022-10-19T21:20:39.703Z,101450.34
2022-10-19T21:22:42.982Z,101454.56
2022-10-19T21:24:46.431Z,101451.84
2022-10-19T21:28:56.344Z,101454.13
2022-10-19T21:31:03.167Z,101453.09
2022-10-19T21:33:08.679Z,101443.09
2022-10-19T21:35:11.687Z,101454.41
2022-10-19T21:37:17.544Z,101452.84
2022-10-19T21:39:20.703Z,101467.25
2022-10-19T21:41:26.324Z,101466.69
2022-10-19T21:43:31.178Z,101454.47
2022-10-19T21:45:38.032Z,101467.56
2022-10-19T21:47:41.644Z,101453.47
2022-10-19T21:49:44.686Z,101455.81
2022-10-19T21:51:49.145Z,101457.28
2022-10-19T21:53:52.269Z,101453.78
2022-10-19T21:55:55.662Z,101445.44
2022-10-19T21:57:58.629Z,101441.81
2022-10-19T22:00:03.126Z,101444.63
2022-10-19T22:02:16.011Z,101437.47
2022-10-19T22:04:19.409Z,101438.31
2022-10-19T22:06:22.415Z,101436.63
2022-10-19T22:08:25.669Z,101444.47
2022-10-19T22:10:28.783Z,101437.00
2022-10-19T22:12:31.811Z,101430.78
2022-10-19T22:14:34.807Z,101433.47
2022-10-19T22:16:40.399Z,101434.38
2022-10-19T22:18:44.000Z,101433.97
2022-10-19T22:20:47.024Z,101433.78
2022-10-19T22:22:52.741Z,101433.66
2022-10-19T22:24:59.096Z,101427.47
2022-10-19T22:27:02.184Z,101426.75
2022-10-19T22:29:06.148Z,101409.47
2022-10-19T22:31:09.462Z,101411.22
2022-10-19T22:33:14.584Z,101412.97
2022-10-19T22:35:17.787Z,101405.03
2022-10-19T22:37:23.337Z,101400.13
2022-10-19T22:39:27.897Z,101395.91
2022-10-19T22:41:31.163Z,101389.88
2022-10-19T22:43:34.156Z,101381.81
2022-10-19T22:45:37.163Z,101390.16
2022-10-19T22:47:40.320Z,101388.41
2022-10-19T22:49:44.673Z,101384.75
2022-10-19T22:51:47.712Z,101374.16
2022-10-19T22:53:50.732Z,101368.94
2022-10-19T22:55:53.740Z,101366.13
2022-10-19T22:57:56.823Z,101302.31
2022-10-19T22:59:59.829Z,101351.66
2022-10-19T23:02:03.626Z,101347.28
2022-10-19T23:04:07.008Z,101350.47
2022-10-19T23:06:14.955Z,101344.56
2022-10-19T23:08:18.010Z,101341.75
2022-10-19T23:10:21.242Z,101335.50
2022-10-19T23:12:24.293Z,101338.31
2022-10-19T23:14:27.290Z,101332.09
2022-10-19T23:16:30.312Z,101327.78
2022-10-19T23:18:33.343Z,101316.72
2022-10-19T23:20:36.379Z,101308.88
2022-10-19T23:22:40.809Z,101303.75
2022-10-19T23:24:43.885Z,101290.63
2022-10-19T23:26:46.929Z,101297.72
2022-10-19T23:28:50.791Z,101296.03
2022-10-19T23:30:53.819Z,101297.09
2022-10-19T23:32:59.172Z,101299.72
2022-10-19T23:35:02.162Z,101297.88
2022-10-19T23:37:05.214Z,101290.25
2022-10-19T23:39:09.686Z,101299.03
2022-10-19T23:41:12.740Z,101290.16
2022-10-19T23:43:18.626Z,101299.03
2022-10-19T23:45:21.625Z,101307.66
2022-10-19T23:47:24.955Z,101309.28
2022-10-19T23:49:27.975Z,101308.28
2022-10-19T23:51:30.995Z,101306.47
2022-10-19T23:53:38.410Z,101304.78
2022-10-19T23:55:45.212Z,101304.03
2022-10-19T23:57:48.230Z,101305.84
2022-10-19T23:59:51.261Z,101299.03
